x

Half Moon Bay - 24nm Ssw Of San Francisco, Ca (46012) Wave Buoy

7:50am - Sat 23rd Aug 2014 All times are PDT. -7 hours from GMT.

  • Sig Wave height 5.6ft
  • Swell Direction
  • Peak Period 11s
  • Average Period 7s
  • Wind
    4mph, 9mph gusts
  • Sea Temp 64°f
  • Air Temp 60°f
  • Sea Pressure 1013.6mb
  • Half Moon Bay - 24nm Ssw Of San Francisco, Ca
  • Half Moon Bay - 24nm Ssw Of San Francisco, Ca

More Historic Weather Station data

Upgrade to MSW Pro to gain access to the past 30 days of data for over 8000 Wavebouys and Weather Stations around the globe.

Join Pro

Comparision Forecast

View Surf forecast
   
Sat 08/23 7:50am 5.5ft 11s 7s 4 9 mph 1013.6mb 64f 60f
6:50am 6ft 12s 7s 4 7 mph 1013.4mb 64f 60f
5:50am 5ft 12s 7s 4 7 mph 1013.1mb 64f 60f
4:50am 5.5ft 12s 7s 4
mph
1013mb 64f 60f
3:50am 5.5ft 12s 7s 7 9 mph 1012.8mb 64f 60f
2:50am 5.5ft 11s 7s 4 9 mph 1013.2mb 64f 61f
1:50am 5.5ft 7s 6s 4 11 mph 1013.2mb 64f 61f
12:50am 5.5ft 13s 6s 7 11 mph 1013.2mb 64f 61f
Fri 08/22 11:50pm 5.5ft 11s 6s 7 11 mph 1013.5mb 64f 62f
10:50pm 5.5ft 7s 6s 7 9 mph 1013.7mb 64f 62f
9:50pm 5ft 9s 6s 11 13 mph 1013.8mb 64f 62f
8:50pm 5.5ft 7s 6s 11 13 mph 1013.5mb 64f 62f
7:50pm 5ft 10s 6s 11 16 mph 1013.4mb 64f 61f
6:50pm 5.5ft 7s 6s 13 16 mph 1013.4mb 64f 62f
5:50pm 5ft 11s 6s 13 16 mph 1013.9mb 63f 62f
4:50pm 5ft 11s 6s 11 13 mph 1014mb 63f 62f
3:50pm 5ft 11s 6s 11 16 mph 1014.1mb 63f 61f
2:50pm 5ft 10s 6s 13 16 mph 1014.3mb 63f 61f
1:50pm 5ft 7s 6s 16 18 mph 1014.3mb 64f 61f
12:50pm 5.5ft 11s 7s 11 13 mph 1014.6mb 64f 61f
11:50am 5.5ft 11s 7s 9 13 mph 1014.8mb 64f 61f
10:50am 5ft 8s 6s 9 13 mph 1014.7mb 64f 60f
9:50am 4.5ft 11s 7s 7 9 mph 1014.3mb 64f 61f
8:50am 5ft 8s 7s 7 9 mph 1014.1mb 63f 61f
7:50am 5ft 7s 7s 7 9 mph 1014.1mb 64f 61f
6:50am 5.5ft 11s 8s 7 9 mph 1013.8mb 63f 61f
5:50am 5ft 12s 7s 7 9 mph 1013.5mb 63f 61f
4:50am 5ft 11s 7s 7 9 mph 1013.5mb 63f 61f
3:50am 5.5ft 12s 8s 9
mph
1013.8mb 64f 60f
2:50am 5.5ft 12s 7s 4 7 mph 1014mb 64f 59f
1:50am 6.5ft 8s 8s 4 7 mph 1014.1mb 64f 58f
12:50am 6ft 8s 7s 7
mph
1014.2mb 64f 58f
Thu 08/21 11:50pm 6ft 8s 7s 7 9 mph 1014mb 64f 60f
10:50pm 6ft 8s 7s  -  4 mph 1013.9mb 64f 60f
9:50pm 6ft 8s 7s 2 4 mph 1014mb 64f 60f
8:50pm 5.5ft 8s 8s  -  2 mph 1013.7mb 64f 60f
7:50pm 5ft 8s 7s 2 4 mph 1013.8mb 64f 60f
6:50pm 5ft 8s 7s  -  2 mph 1013.8mb 64f 60f
5:50pm 4.5ft 7s 7s 2 4 mph 1013.7mb 64f 60f
4:50pm 4.5ft 7s 7s 4 7 mph 1014mb 64f 61f
3:50pm 4.5ft 8s 7s 4 7 mph 1014.3mb 64f 61f
2:50pm 4.5ft 7s 7s 7
mph
1014.9mb 64f 61f
1:50pm 5ft 7s 6s 7 9 mph 1015mb 64f 61f
12:50pm 4.5ft 7s 6s 7 9 mph 1015.1mb 64f 61f
11:50am 5ft 7s 6s 7 11 mph 1015mb 64f 60f
10:50am 5ft 7s 6s 7 9 mph 1014.8mb 64f 60f
9:50am 5ft 7s 7s 9 11 mph 1014.4mb 64f 60f
8:50am 4.5ft 8s 7s 7 9 mph 1014.1mb 64f 60f
7:50am 4ft 7s 7s 7 9 mph 1013.7mb 64f 60f
6:50am 4ft 10s 7s  -  mph 1013.4mb 64f 59f
5:50am 4ft 14s 7s 2 7 mph 1013mb 64f 59f
4:50am 4ft 10s 7s 2
mph
1012.8mb 64f 59f
3:50am 4ft 7s 7s 2
mph
1013.1mb 64f 59f
2:50am 4ft 9s 7s 4 7 mph 1013.4mb 64f 59f
1:50am 4.5ft 7s 6s 4
mph
1013.4mb 64f 59f
12:50am 4.5ft 7s 6s 7 9 mph 1013.4mb 64f 59f
Wed 08/20 11:50pm 5ft 8s 7s 2
mph
1013.3mb 64f 59f
10:50pm 4.5ft 8s 6s 4 7 mph 1013.2mb 64f 59f
9:50pm 4.5ft 8s 6s 4 7 mph 1013.3mb 63f 59f
8:50pm 4.5ft 8s 6s 2 4 mph 1012.9mb 63f 60f
7:50pm 4.5ft 11s 7s 7 9 mph 1012.7mb 63f 60f
6:50pm 4.5ft 8s 6s 7 9 mph 1012.6mb 63f 60f
5:50pm 4.5ft 8s 7s 7 9 mph 1013mb 63f 60f
4:50pm 4.5ft 8s 6s 9 11 mph 1013.1mb 63f 61f
3:50pm 4.5ft 8s 7s 11
mph
1013.2mb 63f 61f
2:50pm 5ft 8s 7s 11 13 mph 1014mb 63f 61f
1:50pm 5ft 8s 7s 11 13 mph 1014.2mb 63f 61f
12:50pm 5ft 8s 7s 11
mph
1014.4mb 63f 60f
11:50am 5.5ft 8s 7s 9 11 mph 1014.2mb 63f 60f
10:50am 5.5ft 8s 7s 9
mph
1014mb 63f 60f
9:50am 6ft 8s 7s 9 11 mph 1013.5mb 63f 59f
8:50am 5ft 8s 7s 11 13 mph 1013.1mb 63f 60f
7:50am 5ft 8s 7s 11 13 mph 1012.4mb 63f 60f
6:50am 4.5ft 8s 7s 11 13 mph 1011.9mb 63f 60f
5:50am 4.5ft 8s 7s 11 16 mph 1011.5mb 63f 59f
4:50am 4.5ft 8s 7s 13 16 mph 1011.2mb 63f 60f
3:50am 4.5ft 8s 7s 9 11 mph 1011.5mb 63f 60f
2:50am 4.5ft 9s 7s 9 13 mph 1011.3mb 63f 60f
1:50am 4.5ft 8s 7s 9 13 mph 1011.2mb 63f 61f
12:50am 4.5ft 8s 7s 9 11 mph 1011.4mb 63f 61f
Tue 08/19 11:50pm 4.5ft 9s 7s 11 13 mph 1011.2mb 63f 62f
10:50pm 5ft 9s 7s 11 13 mph 1011.2mb 63f 62f
9:50pm 5.5ft 9s 7s 9 11 mph 1011.1mb 63f 62f
8:50pm 5.5ft 8s 7s 7 9 mph 1010.7mb 63f 62f
7:50pm 5ft 8s 7s 7 9 mph 1010.2mb 63f 62f
6:50pm 5ft 8s 7s 7
mph
1010.2mb 63f 61f
5:50pm 4.5ft 8s 7s 7
mph
1010.4mb 63f 61f
4:50pm 4.5ft 7s 7s 7 9 mph 1010.5mb 63f 61f